Time;durP1;ratioP1;P1;durP2;ratioP2;P2;SDS_P1;SDS_P2;PMS_P1;PMS_P2;Temp;Humidity;BMP_temperature;BMP_pressure;BME280_temperature;BME280_humidity;BME280_pressure;Samples;Min_cycle;Max_cycle;Signal;HPM_P1;HPM_P2
2021/09/12 00:02:25;;;;;;;13.50;12.10;;;18.20;89.10;;;18.22;71.91;95125.38;4979589;28;20247;-81
2021/09/12 00:04:53;;;;;;;12.70;11.50;;;18.30;89.10;;;18.22;71.78;95127.19;5012067;28;20270;-80
2021/09/12 00:07:20;;;;;;;12.95;11.65;;;18.30;89.00;;;18.21;72.13;95128.25;5011923;28;20201;-81
2021/09/12 00:09:48;;;;;;;12.18;10.98;;;18.20;88.80;;;18.24;72.15;95133.09;5013436;28;20205;-81
2021/09/12 00:12:15;;;;;;;13.25;11.85;;;18.30;88.90;;;18.21;71.83;95123.75;5031085;28;20220;-81
2021/09/12 00:14:43;;;;;;;17.10;12.82;;;18.30;88.80;;;18.17;71.81;95117.28;4998996;28;20208;-81
2021/09/12 00:17:10;;;;;;;14.98;13.05;;;18.30;88.50;;;18.15;71.49;95116.72;5031859;28;20761;-80
2021/09/12 00:19:37;;;;;;;13.68;12.38;;;18.30;88.20;;;18.09;71.65;95117.66;5001772;28;20658;-81
2021/09/12 00:22:04;;;;;;;14.18;12.68;;;18.30;88.10;;;18.12;71.30;95121.69;5014261;28;20208;-80
2021/09/12 00:24:32;;;;;;;14.75;13.25;;;18.20;87.90;;;18.08;71.65;95118.69;5014924;28;20228;-81
2021/09/12 00:26:59;;;;;;;14.02;12.30;;;18.30;87.90;;;18.06;71.33;95126.88;5014851;28;20218;-81
2021/09/12 00:29:26;;;;;;;13.20;11.90;;;18.30;88.00;;;18.02;71.32;95119.63;5031333;28;20662;-81
2021/09/12 00:31:54;;;;;;;12.35;11.05;;;18.20;87.90;;;18.00;71.90;95127.00;5002551;28;20217;-81
2021/09/12 00:34:21;;;;;;;13.52;12.18;;;18.20;87.90;;;17.91;71.53;95114.06;5011001;28;20662;-81
2021/09/12 00:36:48;;;;;;;14.40;12.90;;;18.20;87.90;;;17.93;71.74;95119.97;4979093;28;20213;-81
2021/09/12 00:39:15;;;;;;;14.98;13.38;;;18.10;87.80;;;17.90;71.53;95124.91;5011376;28;20622;-81
2021/09/12 00:41:44;;;;;;;15.25;13.63;;;18.10;87.80;;;17.86;71.42;95127.22;5018099;28;20314;-81
2021/09/12 00:44:13;;;;;;;15.68;13.98;;;18.00;87.60;;;17.80;71.38;95130.00;5031063;28;20239;-80
2021/09/12 00:46:45;;;;;;;15.13;13.52;;;18.00;87.50;;;17.80;71.58;95127.34;5014773;28;20216;-81
2021/09/12 00:49:15;;;;;;;15.90;14.00;;;18.00;87.60;;;17.77;71.41;95133.91;5014976;28;20266;-80
2021/09/12 00:51:42;;;;;;;14.38;12.75;;;18.10;87.60;;;17.75;71.77;95125.41;5026806;28;20240;-81
2021/09/12 00:54:10;;;;;;;15.55;13.88;;;18.00;87.60;;;17.72;71.71;95121.38;5011428;28;20617;-81
2021/09/12 00:56:41;;;;;;;14.88;13.25;;;18.00;87.70;;;17.74;71.56;95129.88;4978804;28;20209;-80
2021/09/12 00:59:14;;;;;;;14.43;12.98;;;18.00;87.80;;;17.74;71.76;95134.41;4978900;28;20216;-81
2021/09/12 01:01:43;;;;;;;12.88;11.57;;;17.90;87.80;;;17.75;71.87;95128.06;4994981;28;20216;-81
2021/09/12 01:04:11;;;;;;;12.65;11.35;;;18.00;88.10;;;17.77;71.81;95133.91;5011237;28;20267;-80
2021/09/12 01:06:39;;;;;;;14.30;12.00;;;17.90;88.20;;;17.79;72.02;95134.50;5027427;28;20258;-81
2021/09/12 01:09:06;;;;;;;13.27;11.45;;;17.90;88.30;;;17.80;71.81;95128.16;5010826;28;20648;-81
2021/09/12 01:11:33;;;;;;;13.00;11.50;;;17.90;88.40;;;17.81;72.23;95128.94;5014560;28;20629;-81
2021/09/12 01:14:00;;;;;;;14.10;11.90;;;17.90;88.40;;;17.85;71.96;95122.16;5034978;28;20657;-81
2021/09/12 01:16:28;;;;;;;13.18;11.50;;;17.90;88.40;;;17.84;72.39;95118.69;5034753;28;20251;-81
2021/09/12 01:18:55;;;;;;;13.73;11.88;;;17.90;88.40;;;17.84;71.91;95116.03;5018015;28;20656;-80
2021/09/12 01:21:24;;;;;;;13.77;12.27;;;18.00;88.50;;;17.87;71.97;95123.53;5031311;28;20221;-81
2021/09/12 01:23:52;;;;;;;13.23;11.90;;;18.00;88.20;;;17.87;72.03;95118.25;4998573;28;20252;-81
2021/09/12 01:26:25;;;;;;;15.60;13.98;;;18.00;88.30;;;17.88;72.14;95124.34;5014903;28;20219;-80
2021/09/12 01:28:54;;;;;;;15.73;14.07;;;18.00;88.00;;;17.88;71.60;95119.84;5014578;28;20469;-80
2021/09/12 01:31:27;;;;;;;16.15;14.45;;;18.00;88.00;;;17.89;71.53;95118.81;5016122;28;20220;-79
2021/09/12 01:33:56;;;;;;;14.43;12.65;;;18.00;87.70;;;17.92;71.48;95123.66;5014473;28;20255;-79
2021/09/12 01:36:24;;;;;;;14.43;12.95;;;17.90;87.60;;;17.94;71.47;95115.44;4998370;28;20303;-80
2021/09/12 01:38:52;;;;;;;14.85;13.25;;;18.10;87.70;;;17.96;71.50;95117.91;5014829;28;20630;-80
2021/09/12 01:41:19;;;;;;;14.27;12.88;;;18.00;87.60;;;17.98;71.35;95115.81;4998278;28;20227;-80
2021/09/12 01:43:57;;;;;;;14.43;12.93;;;18.10;87.60;;;18.02;71.70;95112.47;5014565;28;20220;-80
2021/09/12 01:46:25;;;;;;;15.52;12.63;;;18.10;87.60;;;18.05;71.22;95111.19;5014336;28;20224;-79
2021/09/12 01:48:55;;;;;;;16.90;13.95;;;18.10;87.60;;;18.06;71.58;95104.84;5031052;28;20200;-80
2021/09/12 01:51:22;;;;;;;14.15;12.63;;;18.10;87.60;;;18.07;71.14;95101.16;5013994;28;20359;-79
2021/09/12 01:53:49;;;;;;;13.40;12.10;;;18.10;87.60;;;18.10;71.38;95097.22;5014654;28;20276;-80
2021/09/12 01:56:17;;;;;;;12.35;11.07;;;18.20;87.80;;;18.15;71.61;95100.81;5013414;28;20213;-80
2021/09/12 01:58:45;;;;;;;11.65;10.38;;;18.20;87.80;;;18.16;71.58;95098.94;5015312;28;20641;-81
2021/09/12 02:01:12;;;;;;;11.52;10.43;;;18.30;87.80;;;18.19;71.47;95101.94;5017320;28;20339;-81
2021/09/12 02:03:39;;;;;;;11.23;10.13;;;18.20;87.80;;;18.22;71.83;95105.97;5030313;28;20617;-81
2021/09/12 02:06:06;;;;;;;12.93;11.57;;;18.20;87.60;;;18.19;71.77;95093.16;5030573;28;20267;-80
2021/09/12 02:08:34;;;;;;;11.13;10.02;;;18.20;87.60;;;18.21;71.20;95093.72;4997032;28;20295;-80
2021/09/12 02:11:02;;;;;;;12.02;10.05;;;18.20;87.50;;;18.23;71.58;95103.06;5008613;28;20223;-79
2021/09/12 02:13:30;;;;;;;11.35;10.15;;;18.20;87.50;;;18.20;71.43;95087.63;4995807;28;20201;-80
2021/09/12 02:15:57;;;;;;;12.10;10.38;;;18.20;87.50;;;18.19;71.45;95095.84;5004411;28;20225;-79
2021/09/12 02:18:24;;;;;;;14.13;10.88;;;18.20;87.40;;;18.21;71.52;95093.72;5006346;28;20192;-79
2021/09/12 02:20:51;;;;;;;12.88;11.23;;;18.30;87.30;;;18.19;71.46;95095.84;5024491;28;20216;-80
2021/09/12 02:23:19;;;;;;;15.45;12.70;;;18.30;87.10;;;18.13;70.83;95097.56;5012281;28;20707;-80
2021/09/12 02:25:46;;;;;;;14.73;13.13;;;18.30;87.00;;;18.07;71.27;95091.34;5005400;28;20601;-79
2021/09/12 02:28:13;;;;;;;15.18;13.60;;;18.20;86.70;;;17.99;70.91;95093.56;4996358;28;20216;-79
2021/09/12 02:30:42;;;;;;;14.95;13.35;;;18.20;86.60;;;18.00;70.85;95095.16;5003099;28;20694;-79
2021/09/12 02:33:10;;;;;;;16.40;13.82;;;18.20;86.60;;;17.93;70.76;95096.06;5017643;28;20569;-79
2021/09/12 02:35:37;;;;;;;14.85;13.35;;;18.20;86.50;;;17.90;70.84;95093.09;5018481;28;20220;-79
2021/09/12 02:38:04;;;;;;;16.15;14.02;;;18.10;86.30;;;17.88;70.72;95095.97;5019060;28;20193;-79
2021/09/12 02:40:31;;;;;;;15.35;13.00;;;18.20;86.20;;;17.87;71.02;95094.34;5009573;28;20266;-81
2021/09/12 02:42:58;;;;;;;13.68;12.27;;;18.10;86.10;;;17.82;70.94;95091.59;5026763;28;20243;-81
2021/09/12 02:45:26;;;;;;;11.98;10.77;;;18.00;86.00;;;17.76;70.39;95092.53;5011657;28;20228;-81
2021/09/12 02:47:53;;;;;;;12.15;10.95;;;18.00;85.90;;;17.74;70.58;95099.91;5012930;28;20559;-81
2021/09/12 02:50:20;;;;;;;12.32;11.13;;;17.90;85.90;;;17.64;70.82;95097.00;5031601;28;20303;-80
2021/09/12 02:52:47;;;;;;;13.65;11.95;;;17.90;85.90;;;17.62;70.65;95093.81;5027257;28;20193;-80
2021/09/12 02:55:15;;;;;;;12.30;10.98;;;17.90;86.00;;;17.57;70.87;95095.28;5011235;28;20224;-79
2021/09/12 02:57:42;;;;;;;12.20;10.90;;;17.90;86.00;;;17.52;70.42;95097.84;5014962;28;20185;-81
2021/09/12 03:00:10;;;;;;;12.15;10.90;;;17.80;85.90;;;17.47;71.08;95094.25;5011201;28;20595;-80
2021/09/12 03:02:37;;;;;;;12.68;11.38;;;17.70;85.70;;;17.40;70.46;95094.38;5019369;28;20296;-80
2021/09/12 03:05:06;;;;;;;11.90;10.70;;;17.70;85.70;;;17.34;70.72;95093.44;4996151;28;20232;-80
2021/09/12 03:07:33;;;;;;;11.48;10.30;;;17.70;85.70;;;17.28;70.40;95091.72;5002767;28;20255;-80
2021/09/12 03:10:00;;;;;;;12.93;10.90;;;17.60;85.60;;;17.22;70.96;95090.81;5013109;28;20286;-80
2021/09/12 03:12:27;;;;;;;13.75;11.68;;;17.50;85.60;;;17.18;70.66;95094.94;4996098;28;20192;-80
2021/09/12 03:14:54;;;;;;;12.27;11.07;;;17.50;85.60;;;17.14;71.06;95093.78;4996547;28;20204;-81
2021/09/12 03:17:22;;;;;;;12.02;10.80;;;17.50;85.70;;;17.08;70.57;95092.84;5012838;28;20247;-81
2021/09/12 03:19:49;;;;;;;12.02;10.65;;;17.40;85.60;;;17.03;70.47;95092.72;4996658;28;20677;-81
2021/09/12 03:22:16;;;;;;;11.25;10.05;;;17.40;85.60;;;16.98;70.65;95097.09;5013624;28;20307;-80
2021/09/12 03:24:43;;;;;;;12.38;11.05;;;17.30;85.60;;;16.93;70.62;95098.56;5016152;28;20277;-80
2021/09/12 03:27:12;;;;;;;12.85;11.55;;;17.30;85.60;;;16.89;70.58;95096.56;5016333;28;20307;-80
2021/09/12 03:29:39;;;;;;;12.32;10.98;;;17.20;85.50;;;16.83;70.74;95098.28;5032178;28;20282;-80
2021/09/12 03:32:06;;;;;;;12.00;10.68;;;17.20;85.50;;;16.80;70.67;95101.41;5019042;28;20602;-80
2021/09/12 03:34:33;;;;;;;15.55;11.55;;;17.10;85.50;;;16.75;70.81;95095.97;5011260;28;20354;-80
2021/09/12 03:37:01;;;;;;;13.30;11.52;;;17.10;85.50;;;16.70;70.53;95101.13;5012513;28;20285;-80
2021/09/12 03:39:28;;;;;;;13.45;11.15;;;17.00;85.40;;;16.63;70.88;95101.22;5026854;28;20231;-79
2021/09/12 03:41:55;;;;;;;11.82;10.35;;;17.00;85.40;;;16.60;70.58;95109.59;5007350;28;20307;-79
2021/09/12 03:44:22;;;;;;;11.98;10.38;;;16.90;85.40;;;16.54;70.74;95103.38;5011948;28;20248;-80
2021/09/12 03:46:50;;;;;;;11.35;10.15;;;16.90;85.40;;;16.54;70.71;95107.84;5011886;28;20307;-80
2021/09/12 03:49:17;;;;;;;11.45;10.32;;;16.80;85.40;;;16.48;71.07;95102.44;5004118;28;20666;-80
2021/09/12 03:51:44;;;;;;;10.98;9.88;;;16.80;85.50;;;16.46;70.77;95103.69;5015118;28;20215;-79
2021/09/12 03:54:12;;;;;;;11.07;9.98;;;16.80;85.50;;;16.40;70.44;95094.78;5013915;28;20223;-80
2021/09/12 03:56:39;;;;;;;12.48;11.07;;;16.80;85.40;;;16.40;70.62;95101.94;5047694;28;20475;-80
2021/09/12 03:59:06;;;;;;;12.95;11.00;;;16.70;85.40;;;16.33;71.15;95096.72;5010183;28;20196;-80
2021/09/12 04:01:33;;;;;;;11.43;10.02;;;16.70;85.50;;;16.30;70.69;95092.69;4993600;28;20235;-80
2021/09/12 04:04:00;;;;;;;11.32;10.10;;;16.60;85.40;;;16.28;70.62;95096.59;5010216;28;20595;-80
2021/09/12 04:06:27;;;;;;;12.90;10.25;;;16.60;85.30;;;16.24;70.56;95093.56;4993622;28;20290;-80
2021/09/12 04:08:55;;;;;;;12.45;9.85;;;16.60;85.20;;;16.16;70.72;95092.03;5010015;28;20193;-80
2021/09/12 04:11:22;;;;;;;10.73;9.63;;;16.50;85.20;;;16.15;70.78;95098.38;5029193;28;20823;-80
2021/09/12 04:13:49;;;;;;;10.20;9.20;;;16.50;85.20;;;16.11;70.92;95091.09;5012276;28;20298;-80
2021/09/12 04:16:16;;;;;;;11.52;10.32;;;16.50;85.40;;;16.06;70.90;95096.25;5029548;28;20212;-80
2021/09/12 04:18:43;;;;;;;12.30;11.00;;;16.50;85.50;;;16.04;70.82;95101.75;5013792;28;20573;-80
2021/09/12 04:21:11;;;;;;;48.38;19.70;;;16.40;85.40;;;16.03;71.06;95101.97;5001080;28;20217;-80
2021/09/12 04:23:38;;;;;;;78.65;34.88;;;16.30;85.50;;;15.99;70.88;95098.94;5004198;28;20288;-80
2021/09/12 04:26:05;;;;;;;170.43;79.15;;;16.30;85.70;;;15.97;71.24;95103.66;4993690;28;20303;-80
2021/09/12 04:28:32;;;;;;;65.50;39.83;;;16.30;85.80;;;15.98;71.25;95115.88;5033459;28;20203;-79
2021/09/12 04:30:59;;;;;;;35.63;26.05;;;16.30;85.80;;;15.95;71.34;95111.84;5014587;28;20315;-79
2021/09/12 04:33:27;;;;;;;25.10;18.27;;;16.30;86.00;;;15.99;71.59;95115.66;5031114;28;20662;-79
2021/09/12 04:35:54;;;;;;;27.85;18.00;;;16.30;86.20;;;15.97;71.57;95107.09;5014827;28;20240;-79
2021/09/12 04:38:21;;;;;;;24.25;19.95;;;16.30;86.40;;;16.06;71.91;95114.75;5015969;28;20205;-81
2021/09/12 04:40:49;;;;;;;18.52;16.13;;;16.30;86.60;;;16.11;71.89;95113.06;5027585;28;20213;-79
2021/09/12 04:43:16;;;;;;;14.95;13.45;;;16.30;86.80;;;16.15;71.73;95111.59;5011464;28;20208;-80
2021/09/12 04:45:43;;;;;;;23.63;14.70;;;16.30;86.90;;;16.20;71.83;95102.16;4995093;28;20240;-79
2021/09/12 04:48:10;;;;;;;16.55;14.27;;;16.40;87.10;;;16.31;71.79;95115.47;5020753;28;20258;-80
2021/09/12 04:50:39;;;;;;;15.40;13.38;;;16.40;87.30;;;16.37;72.12;95111.13;5030971;28;20291;-80
2021/09/12 04:53:06;;;;;;;16.13;14.43;;;16.50;87.50;;;16.44;71.76;95113.69;5014972;28;20208;-79
2021/09/12 04:55:33;;;;;;;14.25;12.13;;;16.50;87.50;;;16.45;71.78;95110.00;4996151;28;20238;-80
2021/09/12 04:58:00;;;;;;;13.38;11.40;;;16.60;87.40;;;16.53;71.60;95112.34;5011431;28;20295;-80
2021/09/12 05:00:27;;;;;;;11.50;10.32;;;16.60;87.00;;;16.53;71.21;95116.81;5011112;28;20674;-80
2021/09/12 05:02:54;;;;;;;11.82;10.50;;;16.60;86.70;;;16.52;71.38;95118.69;5010969;28;20196;-79
2021/09/12 05:05:22;;;;;;;11.80;10.60;;;16.60;86.50;;;16.50;70.64;95123.38;5003221;28;20235;-79
2021/09/12 05:07:50;;;;;;;12.00;10.73;;;16.60;86.30;;;16.47;71.17;95119.34;5005875;28;20224;-78
2021/09/12 05:10:17;;;;;;;13.48;12.02;;;16.70;86.30;;;16.47;71.08;95123.84;5011148;28;20247;-80
2021/09/12 05:12:44;;;;;;;12.80;11.05;;;16.70;86.20;;;16.45;70.80;95118.78;5011244;28;20263;-80
2021/09/12 05:15:11;;;;;;;12.60;11.35;;;16.60;86.20;;;16.42;71.05;95118.41;5010698;28;20324;-79
2021/09/12 05:17:38;;;;;;;12.75;10.75;;;16.60;86.30;;;16.46;71.09;95130.16;5011096;28;20204;-80
2021/09/12 05:20:08;;;;;;;14.18;11.57;;;16.70;86.50;;;16.46;71.22;95127.50;4993421;28;20304;-80
2021/09/12 05:22:37;;;;;;;12.45;11.15;;;16.70;86.60;;;16.46;71.62;95120.38;5009024;28;20255;-80
2021/09/12 05:25:06;;;;;;;11.52;10.32;;;16.70;86.60;;;16.49;71.13;95122.59;5013469;28;20419;-80
2021/09/12 05:27:33;;;;;;;11.35;10.25;;;16.70;86.50;;;16.52;71.46;95125.81;5029887;28;20234;-80
2021/09/12 05:30:02;;;;;;;10.82;9.73;;;16.80;86.60;;;16.53;71.08;95120.28;5014397;28;20291;-80
2021/09/12 05:32:29;;;;;;;12.68;11.02;;;16.70;86.50;;;16.48;71.54;95115.66;5014378;28;20235;-80
2021/09/12 05:34:56;;;;;;;12.20;11.00;;;16.70;86.50;;;16.55;71.09;95126.19;5006206;28;20197;-79
2021/09/12 05:37:23;;;;;;;12.75;11.45;;;16.70;86.60;;;16.57;71.29;95129.41;5026174;28;20299;-80
2021/09/12 05:39:51;;;;;;;13.55;12.13;;;16.70;86.70;;;16.59;71.06;95127.34;5011018;28;20199;-80
2021/09/12 05:42:18;;;;;;;13.65;12.30;;;16.70;86.80;;;16.62;71.20;95124.25;5010511;28;20232;-79
2021/09/12 05:44:45;;;;;;;13.95;12.48;;;16.80;87.00;;;16.66;71.51;95137.84;5010869;28;20224;-80
2021/09/12 05:47:12;;;;;;;14.05;12.55;;;16.70;87.00;;;16.70;71.62;95132.91;5009814;28;20558;-81
2021/09/12 05:49:40;;;;;;;15.20;13.32;;;16.80;87.20;;;16.76;71.74;95130.16;5010769;28;20299;-79
2021/09/12 05:52:07;;;;;;;15.35;13.02;;;16.90;87.40;;;16.81;71.53;95124.22;5013070;28;20368;-80
2021/09/12 05:54:34;;;;;;;14.77;12.95;;;16.90;87.60;;;16.92;71.76;95131.41;4997396;28;20204;-80
2021/09/12 05:57:01;;;;;;;14.93;13.35;;;16.90;87.80;;;17.02;72.17;95122.91;4998193;28;20752;-80
2021/09/12 05:59:29;;;;;;;13.88;12.50;;;17.00;88.10;;;17.10;72.08;95122.59;5022888;28;20209;-80
2021/09/12 06:01:56;;;;;;;14.10;12.70;;;17.10;88.40;;;17.23;72.00;95118.91;4998095;28;20244;-80
2021/09/12 06:04:23;;;;;;;16.15;14.45;;;17.10;88.50;;;17.33;72.16;95117.53;5030521;28;20303;-80
2021/09/12 06:06:51;;;;;;;15.68;14.07;;;17.20;88.70;;;17.46;72.16;95122.63;5009007;28;20275;-80
2021/09/12 06:09:18;;;;;;;16.65;14.80;;;17.30;88.90;;;17.57;71.87;95121.81;5014478;28;20307;-80
2021/09/12 06:11:46;;;;;;;15.38;13.82;;;17.40;89.10;;;17.74;72.23;95126.44;5014011;28;20718;-79
2021/09/12 06:14:13;;;;;;;14.55;13.10;;;17.50;89.30;;;17.90;71.96;95128.38;5016573;28;20291;-78
2021/09/12 06:16:40;;;;;;;14.27;12.77;;;17.60;89.50;;;18.04;72.44;95128.97;5013832;28;20225;-78
2021/09/12 06:19:08;;;;;;;14.38;12.88;;;17.70;89.60;;;18.20;72.28;95135.41;4997909;28;20192;-79
2021/09/12 06:21:35;;;;;;;14.15;12.80;;;17.90;89.60;;;18.33;71.71;95129.00;5008270;28;20268;-79
2021/09/12 06:24:03;;;;;;;13.48;12.07;;;18.00;89.50;;;18.46;71.58;95132.47;5012921;28;20196;-78
2021/09/12 06:26:31;;;;;;;14.27;12.88;;;18.20;89.50;;;18.58;71.66;95143.03;5017103;28;20232;-79
2021/09/12 06:28:58;;;;;;;14.85;13.25;;;18.20;89.30;;;18.64;71.88;95139.44;5014853;28;20208;-80
2021/09/12 06:31:26;;;;;;;15.25;13.15;;;18.30;89.20;;;18.77;71.43;95139.16;5031796;28;20270;-79
2021/09/12 06:33:54;;;;;;;16.27;13.57;;;18.50;89.10;;;18.87;71.83;95138.53;5009472;28;20200;-78
2021/09/12 06:36:21;;;;;;;14.75;13.25;;;18.60;89.00;;;18.97;71.42;95138.75;5013181;28;20240;-79
2021/09/12 06:38:48;;;;;;;15.10;13.52;;;18.70;89.00;;;19.08;71.22;95138.91;5031542;28;20197;-78
2021/09/12 06:41:16;;;;;;;15.38;13.77;;;18.90;89.10;;;19.18;71.23;95141.75;4981012;28;20232;-79
2021/09/12 06:43:43;;;;;;;15.95;13.93;;;18.90;88.90;;;19.27;70.96;95147.47;4997438;28;20666;-78
2021/09/12 06:46:10;;;;;;;15.32;13.80;;;18.90;88.80;;;19.35;71.28;95136.44;5013354;28;20722;-78
2021/09/12 06:48:38;;;;;;;14.43;13.02;;;19.00;88.80;;;19.44;71.33;95136.84;4997252;28;20197;-78
2021/09/12 06:51:05;;;;;;;14.90;13.43;;;19.10;88.70;;;19.50;70.92;95141.19;4994837;28;20319;-78
2021/09/12 06:53:32;;;;;;;14.95;13.48;;;19.20;88.70;;;19.56;71.11;95134.91;4997018;28;20209;-78
2021/09/12 06:55:59;;;;;;;15.27;13.65;;;19.30;88.60;;;19.63;70.91;95135.56;5013256;28;20619;-78
2021/09/12 06:58:27;;;;;;;14.05;12.70;;;19.40;88.60;;;19.72;70.98;95143.94;4997268;28;20212;-79
2021/09/12 07:00:56;;;;;;;15.43;12.73;;;19.40;88.60;;;19.81;70.82;95139.00;4997066;28;20244;-78
2021/09/12 07:03:27;;;;;;;14.40;12.98;;;19.50;88.60;;;19.90;70.90;95140.22;5012274;28;20185;-78
2021/09/12 07:05:55;;;;;;;14.57;13.07;;;19.60;88.70;;;19.97;71.09;95140.06;5013040;28;20319;-78
2021/09/12 07:08:22;;;;;;;15.13;13.60;;;19.70;88.90;;;20.11;71.04;95143.97;5012909;28;20205;-79
2021/09/12 07:10:49;;;;;;;14.75;13.15;;;19.80;89.10;;;20.25;71.44;95140.94;4996737;28;20690;-78
2021/09/12 07:13:17;;;;;;;15.80;14.20;;;19.90;89.30;;;20.43;71.51;95139.84;5041114;28;20210;-78
2021/09/12 07:15:44;;;;;;;14.82;13.43;;;20.00;89.60;;;20.63;71.43;95140.06;4999850;28;20681;-79
2021/09/12 07:18:12;;;;;;;15.40;13.80;;;20.10;89.90;;;20.84;71.51;95140.31;4996028;28;20209;-79
2021/09/12 07:20:39;;;;;;;14.45;12.98;;;20.30;90.00;;;21.00;70.76;95145.81;5012802;28;20299;-79
2021/09/12 07:23:07;;;;;;;15.40;13.80;;;20.40;89.50;;;21.10;70.57;95141.38;5017788;28;20283;-79
2021/09/12 07:25:34;;;;;;;13.32;11.95;;;20.50;89.10;;;21.15;70.36;95140.59;5032398;28;20227;-79
2021/09/12 07:28:01;;;;;;;13.60;12.30;;;20.70;88.70;;;21.25;70.41;95145.22;4999979;28;20200;-80
2021/09/12 07:30:29;;;;;;;14.43;12.93;;;20.80;89.40;;;21.33;70.25;95146.66;5016118;28;20252;-78
2021/09/12 07:32:56;;;;;;;14.48;13.07;;;20.90;88.40;;;21.42;70.09;95153.09;5014837;28;20203;-79
2021/09/12 07:35:24;;;;;;;14.68;13.15;;;21.00;88.20;;;21.55;69.76;95144.69;5012131;28;20300;-75
2021/09/12 07:37:51;;;;;;;13.65;12.18;;;21.10;88.40;;;21.69;70.18;95142.41;5012626;28;20201;-78
2021/09/12 07:40:18;;;;;;;13.45;12.15;;;21.20;88.40;;;21.90;69.96;95145.22;5012464;28;20208;-78
2021/09/12 07:42:47;;;;;;;13.52;12.27;;;21.30;88.70;;;22.13;69.68;95149.38;5012850;28;20215;-78
2021/09/12 07:45:15;;;;;;;13.48;12.10;;;21.60;88.90;;;22.35;69.77;95151.06;5028647;28;20302;-79
2021/09/12 07:47:42;;;;;;;13.80;12.38;;;21.70;88.70;;;22.56;69.22;95143.97;5041365;28;20615;-79
2021/09/12 07:50:10;;;;;;;12.80;11.55;;;21.80;88.70;;;22.83;69.49;95148.34;5032056;28;20199;-79
2021/09/12 07:52:41;;;;;;;12.48;11.27;;;22.00;88.80;;;23.12;69.26;95150.50;5012140;28;20779;-79
2021/09/12 07:55:15;;;;;;;12.40;11.20;;;22.30;88.80;;;23.40;68.69;95153.78;4996495;28;20228;-79
2021/09/12 07:57:42;;;;;;;12.40;11.20;;;22.50;88.20;;;23.61;68.49;95158.06;4996191;28;20193;-78
2021/09/12 08:00:11;;;;;;;13.05;11.75;;;22.70;88.00;;;23.78;67.81;95157.81;5012092;28;20706;-80
2021/09/12 08:02:39;;;;;;;12.52;11.30;;;22.90;87.20;;;23.89;66.69;95155.91;5014460;28;20189;-78
2021/09/12 08:05:08;;;;;;;12.27;11.05;;;23.10;86.30;;;23.97;66.67;95162.63;5012331;28;20238;-79
2021/09/12 08:07:36;;;;;;;12.07;10.95;;;23.30;86.10;;;24.02;65.37;95156.47;4995706;28;20272;-77
2021/09/12 08:10:05;;;;;;;12.77;11.52;;;23.40;85.10;;;24.06;65.96;95157.50;4995667;28;20211;-77
2021/09/12 08:12:32;;;;;;;11.95;10.75;;;23.50;85.00;;;24.16;65.78;95162.88;5043865;28;20227;-78
2021/09/12 08:15:00;;;;;;;11.57;10.48;;;23.60;84.80;;;24.23;65.17;95159.88;5015495;28;20206;-79
2021/09/12 08:17:28;;;;;;;11.90;10.80;;;23.60;84.30;;;24.36;65.57;95163.88;5014765;28;20775;-78
2021/09/12 08:19:55;;;;;;;10.95;9.85;;;23.80;84.40;;;24.49;65.93;95157.94;5030627;28;20275;-78
2021/09/12 08:22:22;;;;;;;10.88;9.77;;;23.80;84.40;;;24.59;65.39;95165.94;5020188;28;20217;-78
2021/09/12 08:24:50;;;;;;;10.35;9.27;;;23.90;84.50;;;24.65;65.11;95152.50;5011534;28;20200;-80
2021/09/12 08:27:17;;;;;;;10.68;9.57;;;24.00;84.00;;;24.70;64.70;95158.66;5011608;28;20816;-78
2021/09/12 08:29:44;;;;;;;11.70;10.60;;;24.10;83.80;;;24.68;63.08;95162.72;5011628;28;20559;-78
2021/09/12 08:32:11;;;;;;;10.43;9.48;;;24.10;82.40;;;24.54;63.52;95149.06;5011739;28;20278;-79
2021/09/12 08:34:39;;;;;;;10.48;9.50;;;24.20;82.10;;;24.45;62.82;95163.03;4993349;28;20204;-79
2021/09/12 08:37:06;;;;;;;10.23;9.32;;;24.10;81.00;;;24.30;63.09;95155.84;5011663;28;20228;-78
2021/09/12 08:39:33;;;;;;;10.40;9.40;;;24.10;81.00;;;24.18;62.51;95149.19;5011390;28;20558;-79
2021/09/12 08:42:01;;;;;;;10.02;9.05;;;24.10;80.40;;;24.07;62.12;95164.47;5014263;28;20260;-78
2021/09/12 08:44:28;;;;;;;10.60;9.50;;;24.00;80.10;;;23.95;62.49;95149.50;5011555;28;20649;-80
2021/09/12 08:46:55;;;;;;;9.38;8.48;;;23.90;79.80;;;23.87;62.63;95149.22;5011140;28;20290;-79
2021/09/12 08:49:22;;;;;;;8.85;8.05;;;23.80;79.70;;;23.80;62.66;95157.53;5011230;28;20642;-79
2021/09/12 08:51:49;;;;;;;10.80;9.77;;;23.80;80.00;;;23.66;60.74;95155.38;5010396;28;20224;-78
2021/09/12 08:54:16;;;;;;;9.18;8.38;;;23.70;78.70;;;23.62;61.13;95159.69;5031041;28;20195;-79
2021/09/12 08:56:44;;;;;;;9.52;8.63;;;23.70;78.70;;;23.57;61.24;95150.84;5013356;28;20221;-79
2021/09/12 08:59:47;;;;;;;9.40;8.50;;;23.50;78.70;;;23.55;61.37;95151.13;5011376;28;20275;-79
2021/09/12 09:02:15;;;;;;;9.95;8.95;;;23.50;79.50;;;23.56;60.33;95150.06;5024143;28;20247;-78
2021/09/12 09:04:42;;;;;;;9.85;8.85;;;23.50;78.30;;;23.55;60.16;95137.72;5027570;28;20640;-78
2021/09/12 09:07:11;;;;;;;9.60;8.70;;;23.40;78.30;;;23.56;60.90;95141.19;5010276;28;20228;-78
2021/09/12 09:09:50;;;;;;;9.85;8.95;;;23.40;78.70;;;23.58;60.53;95136.38;4995032;28;20287;-81
2021/09/12 09:12:37;;;;;;;9.57;8.48;;;23.40;78.30;;;23.63;61.44;95136.38;5023034;28;20302;-81
2021/09/12 09:15:14;;;;;;;9.15;8.35;;;23.40;79.00;;;23.69;60.81;95140.66;5030438;28;20195;-79
2021/09/12 09:17:48;;;;;;;9.13;8.23;;;23.40;78.60;;;23.76;61.78;95130.47;5015321;28;20269;-81
2021/09/12 09:20:32;;;;;;;10.18;9.18;;;23.50;79.80;;;23.85;61.51;95138.75;5007313;28;20220;-80
2021/09/12 09:23:07;;;;;;;9.40;8.50;;;23.50;79.50;;;23.97;62.04;95135.84;5030509;28;20200;-79
2021/09/12 09:25:34;;;;;;;8.55;7.75;;;23.50;79.90;;;24.05;62.09;95123.78;5029827;28;20250;-83
2021/09/12 09:28:06;;;;;;;9.15;8.35;;;23.60;80.30;;;24.17;61.32;95131.50;5011087;28;20288;-80
2021/09/12 09:30:54;;;;;;;8.77;7.97;;;23.70;79.40;;;24.22;61.03;95131.50;5011084;28;20257;-79
2021/09/12 09:33:29;;;;;;;9.30;8.43;;;23.70;78.80;;;24.22;58.97;95126.13;5031945;28;20548;-79
2021/09/12 09:36:00;;;;;;;9.32;8.30;;;23.80;78.00;;;24.22;59.74;95124.25;5034667;28;20220;-79
2021/09/12 09:38:39;;;;;;;9.05;8.18;;;23.90;78.00;;;24.26;59.84;95127.19;5034663;28;20188;-79
2021/09/12 09:41:18;;;;;;;8.55;7.82;;;23.90;77.50;;;24.34;60.41;95134.66;5034374;28;20237;-78
2021/09/12 09:43:53;;;;;;;9.50;8.68;;;23.90;78.40;;;24.43;60.33;95130.31;5000520;28;20737;-79
2021/09/12 09:46:31;;;;;;;9.23;8.43;;;24.00;78.00;;;24.52;59.54;95130.56;5014527;28;20220;-79
2021/09/12 09:49:19;;;;;;;9.38;8.48;;;24.00;77.80;;;24.65;60.09;95126.47;5014738;28;20279;-79
2021/09/12 09:51:58;;;;;;;9.48;8.57;;;24.10;78.40;;;24.81;59.97;95119.19;5025956;28;20706;-79
2021/09/12 09:54:32;;;;;;;8.90;8.02;;;24.20;78.40;;;25.04;60.29;95119.59;5017789;28;20192;-79
2021/09/12 09:57:01;;;;;;;8.90;8.10;;;24.30;78.80;;;25.21;60.06;95116.53;5034401;28;20661;-79
2021/09/12 09:59:29;;;;;;;8.30;7.60;;;24.50;78.60;;;25.40;59.78;95124.72;5017606;28;20203;-79
2021/09/12 10:01:59;;;;;;;8.30;7.50;;;24.60;78.70;;;25.62;59.83;95116.22;5029540;28;20306;-78
2021/09/12 10:04:28;;;;;;;8.07;7.38;;;24.90;78.50;;;25.88;59.98;95113.28;5013565;28;20197;-79
2021/09/12 10:06:57;;;;;;;8.07;7.28;;;25.00;79.00;;;26.12;59.38;95120.59;5014426;28;20228;-79
2021/09/12 10:09:25;;;;;;;9.95;8.13;;;25.20;78.40;;;26.22;58.75;95115.13;5014299;28;20222;-79
2021/09/12 10:11:55;;;;;;;8.02;7.32;;;25.50;78.30;;;26.32;59.08;95114.19;5014434;28;20312;-79
2021/09/12 10:14:34;;;;;;;8.15;7.45;;;25.60;78.30;;;26.37;58.75;95108.75;5043373;28;20288;-79